sensor_id;sensor_type;location;lat;lon;timestamp;pressure;altitude;pressure_sealevel;temperature
64624;BMP280;51031;50.912;9.242;2022-10-01T00:00:15;98533.59;;;22.90
64624;BMP280;51031;50.912;9.242;2022-10-01T00:00:32;98529.13;;;22.91
64624;BMP280;51031;50.912;9.242;2022-10-01T00:00:48;98534.47;;;22.91
64624;BMP280;51031;50.912;9.242;2022-10-01T00:01:06;98534.47;;;22.91
64624;BMP280;51031;50.912;9.242;2022-10-01T00:01:22;98534.47;;;22.91
64624;BMP280;51031;50.912;9.242;2022-10-01T00:01:38;98529.75;;;22.93
64624;BMP280;51031;50.912;9.242;2022-10-01T00:01:54;98531.59;;;22.92
64624;BMP280;51031;50.912;9.242;2022-10-01T00:02:11;98533.44;;;22.92
64624;BMP280;51031;50.912;9.242;2022-10-01T00:02:26;98528.94;;;22.92
64624;BMP280;51031;50.912;9.242;2022-10-01T00:02:42;98526.25;;;22.92
64624;BMP280;51031;50.912;9.242;2022-10-01T00:02:58;98531.59;;;22.92
64624;BMP280;51031;50.912;9.242;2022-10-01T00:03:14;98528.94;;;22.92
64624;BMP280;51031;50.912;9.242;2022-10-01T00:03:30;98530.78;;;22.92
64624;BMP280;51031;50.912;9.242;2022-10-01T00:03:47;98532.44;;;22.93
64624;BMP280;51031;50.912;9.242;2022-10-01T00:04:02;98528.94;;;22.92
64624;BMP280;51031;50.912;9.242;2022-10-01T00:04:18;98527.09;;;22.93
64624;BMP280;51031;50.912;9.242;2022-10-01T00:04:35;98532.44;;;22.93
64624;BMP280;51031;50.912;9.242;2022-10-01T00:04:51;98529.75;;;22.93
64624;BMP280;51031;50.912;9.242;2022-10-01T00:05:08;98528.09;;;22.92
64624;BMP280;51031;50.912;9.242;2022-10-01T00:05:25;98521.75;;;22.93
64624;BMP280;51031;50.912;9.242;2022-10-01T00:05:41;98527.09;;;22.93
64624;BMP280;51031;50.912;9.242;2022-10-01T00:05:58;98524.41;;;22.93
64624;BMP280;51031;50.912;9.242;2022-10-01T00:06:17;98533.25;;;22.93
64624;BMP280;51031;50.912;9.242;2022-10-01T00:06:33;98524.41;;;22.93
64624;BMP280;51031;50.912;9.242;2022-10-01T00:06:49;98529.75;;;22.93
64624;BMP280;51031;50.912;9.242;2022-10-01T00:07:05;98528.75;;;22.94
64624;BMP280;51031;50.912;9.242;2022-10-01T00:07:25;98523.41;;;22.94
64624;BMP280;51031;50.912;9.242;2022-10-01T00:07:42;98520.72;;;22.94
64624;BMP280;51031;50.912;9.242;2022-10-01T00:07:59;98526.06;;;22.94
64624;BMP280;51031;50.912;9.242;2022-10-01T00:08:15;98523.41;;;22.94
64624;BMP280;51031;50.912;9.242;2022-10-01T00:08:32;98534.09;;;22.94
64624;BMP280;51031;50.912;9.242;2022-10-01T00:08:49;98526.06;;;22.94
64624;BMP280;51031;50.912;9.242;2022-10-01T00:09:05;98525.25;;;22.93
64624;BMP280;51031;50.912;9.242;2022-10-01T00:09:21;98528.75;;;22.94
64624;BMP280;51031;50.912;9.242;2022-10-01T00:09:37;98527.91;;;22.93
64624;BMP280;51031;50.912;9.242;2022-10-01T00:09:53;98526.94;;;22.94
64624;BMP280;51031;50.912;9.242;2022-10-01T00:10:12;98527.09;;;22.93
64624;BMP280;51031;50.912;9.242;2022-10-01T00:10:29;98521.75;;;22.93
64624;BMP280;51031;50.912;9.242;2022-10-01T00:10:45;98525.25;;;22.93
64624;BMP280;51031;50.912;9.242;2022-10-01T00:11:06;98528.75;;;22.94
64624;BMP280;51031;50.912;9.242;2022-10-01T00:11:24;98518.06;;;22.94
64624;BMP280;51031;50.912;9.242;2022-10-01T00:11:40;98520.72;;;22.94
64624;BMP280;51031;50.912;9.242;2022-10-01T00:11:56;98517.22;;;22.93
64624;BMP280;51031;50.912;9.242;2022-10-01T00:12:14;98512.72;;;22.94
64624;BMP280;51031;50.912;9.242;2022-10-01T00:12:31;98522.56;;;22.93
64624;BMP280;51031;50.912;9.242;2022-10-01T00:12:47;98518.91;;;22.94
64624;BMP280;51031;50.912;9.242;2022-10-01T00:13:03;98523.41;;;22.94
64624;BMP280;51031;50.912;9.242;2022-10-01T00:13:19;98516.41;;;22.93
64624;BMP280;51031;50.912;9.242;2022-10-01T00:13:35;98516.41;;;22.93
64624;BMP280;51031;50.912;9.242;2022-10-01T00:13:51;98520.72;;;22.94
64624;BMP280;51031;50.912;9.242;2022-10-01T00:14:09;98512.72;;;22.94
64624;BMP280;51031;50.912;9.242;2022-10-01T00:14:24;98519.06;;;22.93
64624;BMP280;51031;50.912;9.242;2022-10-01T00:14:40;98517.22;;;22.93
64624;BMP280;51031;50.912;9.242;2022-10-01T00:14:56;98514.56;;;22.93
64624;BMP280;51031;50.912;9.242;2022-10-01T00:15:13;98517.41;;;22.92
64624;BMP280;51031;50.912;9.242;2022-10-01T00:15:29;98514.75;;;22.92
64624;BMP280;51031;50.912;9.242;2022-10-01T00:15:46;98512.06;;;22.92
64624;BMP280;51031;50.912;9.242;2022-10-01T00:16:03;98515.75;;;22.91
64624;BMP280;51031;50.912;9.242;2022-10-01T00:16:22;98513.91;;;22.91
64624;BMP280;51031;50.912;9.242;2022-10-01T00:16:38;98507.75;;;22.91
64624;BMP280;51031;50.912;9.242;2022-10-01T00:16:54;98516.59;;;22.91
64624;BMP280;51031;50.912;9.242;2022-10-01T00:17:10;98513.09;;;22.91
64624;BMP280;51031;50.912;9.242;2022-10-01T00:17:26;98512.22;;;22.90
64624;BMP280;51031;50.912;9.242;2022-10-01T00:17:42;98514.91;;;22.90
64624;BMP280;51031;50.912;9.242;2022-10-01T00:17:58;98516.72;;;22.90
64624;BMP280;51031;50.912;9.242;2022-10-01T00:18:13;98507.75;;;22.91
64624;BMP280;51031;50.912;9.242;2022-10-01T00:18:34;98506.06;;;22.90
64624;BMP280;51031;50.912;9.242;2022-10-01T00:18:50;98502.41;;;22.91
64624;BMP280;51031;50.912;9.242;2022-10-01T00:19:11;98507.91;;;22.89
64624;BMP280;51031;50.912;9.242;2022-10-01T00:19:27;98507.91;;;22.89
64624;BMP280;51031;50.912;9.242;2022-10-01T00:19:42;98508.91;;;22.88
64624;BMP280;51031;50.912;9.242;2022-10-01T00:19:58;98508.06;;;22.88
64624;BMP280;51031;50.912;9.242;2022-10-01T00:20:14;98512.41;;;22.89
64624;BMP280;51031;50.912;9.242;2022-10-01T00:20:32;98500.88;;;22.88
64624;BMP280;51031;50.912;9.242;2022-10-01T00:20:48;98508.91;;;22.88
64624;BMP280;51031;50.912;9.242;2022-10-01T00:21:05;98507.25;;;22.87
64624;BMP280;51031;50.912;9.242;2022-10-01T00:21:23;98506.25;;;22.88
64624;BMP280;51031;50.912;9.242;2022-10-01T00:21:40;98508.91;;;22.88
64624;BMP280;51031;50.912;9.242;2022-10-01T00:21:56;98508.91;;;22.88
64624;BMP280;51031;50.912;9.242;2022-10-01T00:22:12;98503.72;;;22.87
64624;BMP280;51031;50.912;9.242;2022-10-01T00:22:29;98504.56;;;22.87
64624;BMP280;51031;50.912;9.242;2022-10-01T00:22:46;98504.56;;;22.87
64624;BMP280;51031;50.912;9.242;2022-10-01T00:23:02;98503.72;;;22.87
64624;BMP280;51031;50.912;9.242;2022-10-01T00:23:18;98502.72;;;22.88
64624;BMP280;51031;50.912;9.242;2022-10-01T00:23:35;98508.06;;;22.88
64624;BMP280;51031;50.912;9.242;2022-10-01T00:23:52;98500.06;;;22.88
64624;BMP280;51031;50.912;9.242;2022-10-01T00:24:11;98505.41;;;22.88
64624;BMP280;51031;50.912;9.242;2022-10-01T00:24:27;98499.22;;;22.87
64624;BMP280;51031;50.912;9.242;2022-10-01T00:24:43;98499.38;;;22.86
64624;BMP280;51031;50.912;9.242;2022-10-01T00:25:01;98501.91;;;22.87
64624;BMP280;51031;50.912;9.242;2022-10-01T00:25:18;98500.22;;;22.86
64624;BMP280;51031;50.912;9.242;2022-10-01T00:25:34;98501.91;;;22.87
64624;BMP280;51031;50.912;9.242;2022-10-01T00:25:50;98496.56;;;22.87
64624;BMP280;51031;50.912;9.242;2022-10-01T00:26:08;98494.88;;;22.86
64624;BMP280;51031;50.912;9.242;2022-10-01T00:26:26;98501.03;;;22.87
64624;BMP280;51031;50.912;9.242;2022-10-01T00:26:43;98495.69;;;22.87
64624;BMP280;51031;50.912;9.242;2022-10-01T00:27:00;98495.69;;;22.87
64624;BMP280;51031;50.912;9.242;2022-10-01T00:27:15;98501.03;;;22.87
64624;BMP280;51031;50.912;9.242;2022-10-01T00:27:31;98500.06;;;22.88
64624;BMP280;51031;50.912;9.242;2022-10-01T00:27:47;98496.72;;;22.86
64624;BMP280;51031;50.912;9.242;2022-10-01T00:28:03;98499.22;;;22.87
64624;BMP280;51031;50.912;9.242;2022-10-01T00:28:20;98497.41;;;22.88
64624;BMP280;51031;50.912;9.242;2022-10-01T00:28:36;98495.69;;;22.87
64624;BMP280;51031;50.912;9.242;2022-10-01T00:28:53;98499.22;;;22.87
64624;BMP280;51031;50.912;9.242;2022-10-01T00:29:11;98492.19;;;22.86
64624;BMP280;51031;50.912;9.242;2022-10-01T00:29:27;98495.88;;;22.85
64624;BMP280;51031;50.912;9.242;2022-10-01T00:29:46;98493.91;;;22.87
64624;BMP280;51031;50.912;9.242;2022-10-01T00:30:03;98492.38;;;22.85
64624;BMP280;51031;50.912;9.242;2022-10-01T00:30:19;98491.38;;;22.86
64624;BMP280;51031;50.912;9.242;2022-10-01T00:30:35;98490.34;;;22.87
64624;BMP280;51031;50.912;9.242;2022-10-01T00:30:51;98478.84;;;22.86
64624;BMP280;51031;50.912;9.242;2022-10-01T00:31:08;98478.03;;;22.86
64624;BMP280;51031;50.912;9.242;2022-10-01T00:31:25;98483.34;;;22.86
64624;BMP280;51031;50.912;9.242;2022-10-01T00:31:42;98484.19;;;22.86
64624;BMP280;51031;50.912;9.242;2022-10-01T00:31:57;98479.69;;;22.87
64624;BMP280;51031;50.912;9.242;2022-10-01T00:32:13;98485.00;;;22.87
64624;BMP280;51031;50.912;9.242;2022-10-01T00:32:30;98485.00;;;22.87
64624;BMP280;51031;50.912;9.242;2022-10-01T00:32:46;98482.34;;;22.87
64624;BMP280;51031;50.912;9.242;2022-10-01T00:33:03;98481.38;;;22.88
64624;BMP280;51031;50.912;9.242;2022-10-01T00:33:19;98482.34;;;22.87
64624;BMP280;51031;50.912;9.242;2022-10-01T00:33:37;98481.38;;;22.88
64624;BMP280;51031;50.912;9.242;2022-10-01T00:33:54;98482.34;;;22.87
64624;BMP280;51031;50.912;9.242;2022-10-01T00:34:11;98481.38;;;22.88
64624;BMP280;51031;50.912;9.242;2022-10-01T00:34:27;98484.03;;;22.88
64624;BMP280;51031;50.912;9.242;2022-10-01T00:34:44;98480.53;;;22.87
64624;BMP280;51031;50.912;9.242;2022-10-01T00:34:59;98480.53;;;22.87
64624;BMP280;51031;50.912;9.242;2022-10-01T00:35:19;98482.19;;;22.88
64624;BMP280;51031;50.912;9.242;2022-10-01T00:35:36;98481.38;;;22.88
64624;BMP280;51031;50.912;9.242;2022-10-01T00:35:52;98481.38;;;22.88
64624;BMP280;51031;50.912;9.242;2022-10-01T00:36:09;98480.53;;;22.87
64624;BMP280;51031;50.912;9.242;2022-10-01T00:36:26;98482.19;;;22.88
64624;BMP280;51031;50.912;9.242;2022-10-01T00:36:42;98476.03;;;22.88
64624;BMP280;51031;50.912;9.242;2022-10-01T00:36:58;98481.38;;;22.88
64624;BMP280;51031;50.912;9.242;2022-10-01T00:37:14;98477.88;;;22.87
64624;BMP280;51031;50.912;9.242;2022-10-01T00:37:32;98476.84;;;22.88
64624;BMP280;51031;50.912;9.242;2022-10-01T00:37:49;98479.53;;;22.88
64624;BMP280;51031;50.912;9.242;2022-10-01T00:38:06;98478.69;;;22.88
64624;BMP280;51031;50.912;9.242;2022-10-01T00:38:23;98480.34;;;22.89
64624;BMP280;51031;50.912;9.242;2022-10-01T00:38:39;98477.69;;;22.89
64624;BMP280;51031;50.912;9.242;2022-10-01T00:38:56;98476.84;;;22.88
64624;BMP280;51031;50.912;9.242;2022-10-01T00:39:14;98471.50;;;22.88
64624;BMP280;51031;50.912;9.242;2022-10-01T00:39:30;98473.16;;;22.89
64624;BMP280;51031;50.912;9.242;2022-10-01T00:39:49;98467.00;;;22.89
64624;BMP280;51031;50.912;9.242;2022-10-01T00:40:07;98478.50;;;22.89
64624;BMP280;51031;50.912;9.242;2022-10-01T00:40:26;98472.34;;;22.89
64624;BMP280;51031;50.912;9.242;2022-10-01T00:40:42;98474.00;;;22.90
64624;BMP280;51031;50.912;9.242;2022-10-01T00:40:58;98472.16;;;22.90
64624;BMP280;51031;50.912;9.242;2022-10-01T00:41:15;98468.66;;;22.90
64624;BMP280;51031;50.912;9.242;2022-10-01T00:41:32;98471.16;;;22.91
64624;BMP280;51031;50.912;9.242;2022-10-01T00:41:49;98467.66;;;22.91
64624;BMP280;51031;50.912;9.242;2022-10-01T00:42:15;98462.31;;;22.91
64624;BMP280;51031;50.912;9.242;2022-10-01T00:42:32;98462.31;;;22.91
64624;BMP280;51031;50.912;9.242;2022-10-01T00:42:48;98466.81;;;22.90
64624;BMP280;51031;50.912;9.242;2022-10-01T00:43:18;98465.81;;;22.91
64624;BMP280;51031;50.912;9.242;2022-10-01T00:43:42;98466.66;;;22.92
64624;BMP280;51031;50.912;9.242;2022-10-01T00:44:01;98456.78;;;22.92
64624;BMP280;51031;50.912;9.242;2022-10-01T00:44:28;98461.31;;;22.92
64624;BMP280;51031;50.912;9.242;2022-10-01T00:44:44;98462.13;;;22.92
64624;BMP280;51031;50.912;9.242;2022-10-01T00:45:00;98458.63;;;22.92
64624;BMP280;51031;50.912;9.242;2022-10-01T00:45:19;98461.31;;;22.92
64624;BMP280;51031;50.912;9.242;2022-10-01T00:45:34;98463.16;;;22.91
64624;BMP280;51031;50.912;9.242;2022-10-01T00:45:51;98457.63;;;22.93
64624;BMP280;51031;50.912;9.242;2022-10-01T00:46:15;98461.31;;;22.92
64624;BMP280;51031;50.912;9.242;2022-10-01T00:46:36;98452.28;;;22.93
64624;BMP280;51031;50.912;9.242;2022-10-01T00:46:54;98451.44;;;22.92
64624;BMP280;51031;50.912;9.242;2022-10-01T00:47:20;98454.94;;;22.93
64624;BMP280;51031;50.912;9.242;2022-10-01T00:47:39;98446.94;;;22.93
64624;BMP280;51031;50.912;9.242;2022-10-01T00:47:57;98452.28;;;22.93
64624;BMP280;51031;50.912;9.242;2022-10-01T00:48:13;98449.59;;;22.93
64624;BMP280;51031;50.912;9.242;2022-10-01T00:48:30;98453.09;;;22.93
64624;BMP280;51031;50.912;9.242;2022-10-01T00:48:52;98450.44;;;22.93
64624;BMP280;51031;50.912;9.242;2022-10-01T00:49:15;98444.25;;;22.93
64624;BMP280;51031;50.912;9.242;2022-10-01T00:49:36;98447.75;;;22.93
64624;BMP280;51031;50.912;9.242;2022-10-01T00:49:55;98441.59;;;22.93
64624;BMP280;51031;50.912;9.242;2022-10-01T00:50:18;98445.09;;;22.93
64624;BMP280;51031;50.912;9.242;2022-10-01T00:50:35;98451.25;;;22.94
64624;BMP280;51031;50.912;9.242;2022-10-01T00:50:52;98444.13;;;22.94
64624;BMP280;51031;50.912;9.242;2022-10-01T00:51:08;98446.94;;;22.93
64624;BMP280;51031;50.912;9.242;2022-10-01T00:51:36;98443.25;;;22.94
64624;BMP280;51031;50.912;9.242;2022-10-01T00:51:57;98437.91;;;22.94
64624;BMP280;51031;50.912;9.242;2022-10-01T00:52:19;98446.78;;;22.94
64624;BMP280;51031;50.912;9.242;2022-10-01T00:52:39;98444.13;;;22.94
64624;BMP280;51031;50.912;9.242;2022-10-01T00:52:58;98443.25;;;22.94
64624;BMP280;51031;50.912;9.242;2022-10-01T00:53:16;98443.25;;;22.94
64624;BMP280;51031;50.912;9.242;2022-10-01T00:53:33;98437.06;;;22.93
64624;BMP280;51031;50.912;9.242;2022-10-01T00:53:49;98432.75;;;22.92
64624;BMP280;51031;50.912;9.242;2022-10-01T00:54:07;98434.59;;;22.92
64624;BMP280;51031;50.912;9.242;2022-10-01T00:54:27;98434.59;;;22.92
64624;BMP280;51031;50.912;9.242;2022-10-01T00:54:47;98437.28;;;22.92
64624;BMP280;51031;50.912;9.242;2022-10-01T00:55:08;98429.25;;;22.92
64624;BMP280;51031;50.912;9.242;2022-10-01T00:55:31;98441.78;;;22.91
64624;BMP280;51031;50.912;9.242;2022-10-01T00:55:50;98437.41;;;22.90
64624;BMP280;51031;50.912;9.242;2022-10-01T00:56:07;98437.41;;;22.90
64624;BMP280;51031;50.912;9.242;2022-10-01T00:56:22;98436.59;;;22.90
64624;BMP280;51031;50.912;9.242;2022-10-01T00:56:40;98425.91;;;22.90
64624;BMP280;51031;50.912;9.242;2022-10-01T00:56:58;98432.94;;;22.91
64624;BMP280;51031;50.912;9.242;2022-10-01T00:57:18;98431.25;;;22.90
64624;BMP280;51031;50.912;9.242;2022-10-01T00:57:35;98434.94;;;22.89
64624;BMP280;51031;50.912;9.242;2022-10-01T00:57:51;98436.59;;;22.90
64624;BMP280;51031;50.912;9.242;2022-10-01T00:58:11;98434.94;;;22.89
64624;BMP280;51031;50.912;9.242;2022-10-01T00:58:27;98429.59;;;22.89
64624;BMP280;51031;50.912;9.242;2022-10-01T00:58:44;98429.78;;;22.87
64624;BMP280;51031;50.912;9.242;2022-10-01T00:59:00;98433.28;;;22.88
64624;BMP280;51031;50.912;9.242;2022-10-01T00:59:16;98433.28;;;22.88
64624;BMP280;51031;50.912;9.242;2022-10-01T00:59:34;98426.25;;;22.87
64624;BMP280;51031;50.912;9.242;2022-10-01T00:59:52;98434.25;;;22.87
64624;BMP280;51031;50.912;9.242;2022-10-01T01:00:09;98431.97;;;22.84
64624;BMP280;51031;50.912;9.242;2022-10-01T01:00:27;98429.28;;;22.84
64624;BMP280;51031;50.912;9.242;2022-10-01T01:00:43;98426.63;;;22.84
64624;BMP280;51031;50.912;9.242;2022-10-01T01:00:59;98426.63;;;22.84
64624;BMP280;51031;50.912;9.242;2022-10-01T01:01:16;98421.44;;;22.82
64624;BMP280;51031;50.912;9.242;2022-10-01T01:01:35;98423.47;;;22.81
64624;BMP280;51031;50.912;9.242;2022-10-01T01:01:51;98433.97;;;22.82
64624;BMP280;51031;50.912;9.242;2022-10-01T01:02:07;98426.13;;;22.81
64624;BMP280;51031;50.912;9.242;2022-10-01T01:02:22;98428.97;;;22.79
64624;BMP280;51031;50.912;9.242;2022-10-01T01:02:39;98428.44;;;22.76
64624;BMP280;51031;50.912;9.242;2022-10-01T01:02:55;98423.28;;;22.74
64624;BMP280;51031;50.912;9.242;2022-10-01T01:03:11;98424.25;;;22.73
64624;BMP280;51031;50.912;9.242;2022-10-01T01:03:28;98431.63;;;22.71
64624;BMP280;51031;50.912;9.242;2022-10-01T01:03:43;98421.28;;;22.68
64624;BMP280;51031;50.912;9.242;2022-10-01T01:04:00;98424.97;;;22.67
64624;BMP280;51031;50.912;9.242;2022-10-01T01:04:16;98426.97;;;22.65
64624;BMP280;51031;50.912;9.242;2022-10-01T01:04:32;98431.66;;;22.63
64624;BMP280;51031;50.912;9.242;2022-10-01T01:04:48;98427.50;;;22.61
64624;BMP280;51031;50.912;9.242;2022-10-01T01:05:05;98425.97;;;22.58
64624;BMP280;51031;50.912;9.242;2022-10-01T01:05:21;98427.97;;;22.56
64624;BMP280;51031;50.912;9.242;2022-10-01T01:05:37;98427.34;;;22.54
64624;BMP280;51031;50.912;9.242;2022-10-01T01:05:54;98429.50;;;22.51
64624;BMP280;51031;50.912;9.242;2022-10-01T01:06:10;98437.66;;;22.50
64624;BMP280;51031;50.912;9.242;2022-10-01T01:06:26;98433.53;;;22.47
64624;BMP280;51031;50.912;9.242;2022-10-01T01:06:42;98434.69;;;22.45
64624;BMP280;51031;50.912;9.242;2022-10-01T01:07:01;98428.19;;;22.39
64624;BMP280;51031;50.912;9.242;2022-10-01T01:07:19;98425.88;;;22.36
64624;BMP280;51031;50.912;9.242;2022-10-01T01:07:35;98430.72;;;22.33
64624;BMP280;51031;50.912;9.242;2022-10-01T01:07:52;98432.72;;;22.31
64624;BMP280;51031;50.912;9.242;2022-10-01T01:08:10;98427.91;;;22.26
64624;BMP280;51031;50.912;9.242;2022-10-01T01:08:26;98428.22;;;22.24
64624;BMP280;51031;50.912;9.242;2022-10-01T01:08:43;98432.06;;;22.21
64624;BMP280;51031;50.912;9.242;2022-10-01T01:09:00;98427.88;;;22.19
64624;BMP280;51031;50.912;9.242;2022-10-01T01:09:17;98438.06;;;22.15
64624;BMP280;51031;50.912;9.242;2022-10-01T01:09:37;98430.56;;;22.11
64624;BMP280;51031;50.912;9.242;2022-10-01T01:09:54;98427.22;;;22.09
64624;BMP280;51031;50.912;9.242;2022-10-01T01:10:12;98434.56;;;22.07
64624;BMP280;51031;50.912;9.242;2022-10-01T01:10:34;98430.41;;;22.04
64624;BMP280;51031;50.912;9.242;2022-10-01T01:10:59;98426.38;;;22.00
64624;BMP280;51031;50.912;9.242;2022-10-01T01:11:23;98431.38;;;21.96
64624;BMP280;51031;50.912;9.242;2022-10-01T01:11:47;98424.03;;;21.90
64624;BMP280;51031;50.912;9.242;2022-10-01T01:12:11;98439.69;;;21.85
64624;BMP280;51031;50.912;9.242;2022-10-01T01:12:43;98430.03;;;21.76
64624;BMP280;51031;50.912;9.242;2022-10-01T01:13:10;98434.38;;;21.69
64624;BMP280;51031;50.912;9.242;2022-10-01T01:13:32;98432.16;;;21.65
64624;BMP280;51031;50.912;9.242;2022-10-01T01:13:56;98426.34;;;21.61
64624;BMP280;51031;50.912;9.242;2022-10-01T01:14:19;98437.34;;;21.58
64624;BMP280;51031;50.912;9.242;2022-10-01T01:14:40;98428.66;;;21.56
64624;BMP280;51031;50.912;9.242;2022-10-01T01:15:09;98435.00;;;21.55
64624;BMP280;51031;50.912;9.242;2022-10-01T01:15:33;98433.50;;;21.53
64624;BMP280;51031;50.912;9.242;2022-10-01T01:15:56;98438.16;;;21.51
64624;BMP280;51031;50.912;9.242;2022-10-01T01:16:19;98439.00;;;21.51
64624;BMP280;51031;50.912;9.242;2022-10-01T01:16:41;98432.16;;;21.49
64624;BMP280;51031;50.912;9.242;2022-10-01T01:17:02;98440.31;;;21.47
64624;BMP280;51031;50.912;9.242;2022-10-01T01:17:25;98435.84;;;21.48
64624;BMP280;51031;50.912;9.242;2022-10-01T01:17:51;98430.66;;;21.46
64624;BMP280;51031;50.912;9.242;2022-10-01T01:18:11;98427.16;;;21.46
64624;BMP280;51031;50.912;9.242;2022-10-01T01:18:33;98431.66;;;21.45
64624;BMP280;51031;50.912;9.242;2022-10-01T01:18:57;98430.00;;;21.44
64624;BMP280;51031;50.912;9.242;2022-10-01T01:19:27;98426.66;;;21.42
64624;BMP280;51031;50.912;9.242;2022-10-01T01:19:59;98433.00;;;21.41
64624;BMP280;51031;50.912;9.242;2022-10-01T01:20:49;98431.97;;;21.35
64624;BMP280;51031;50.912;9.242;2022-10-01T01:21:27;98433.28;;;21.31
64624;BMP280;51031;50.912;9.242;2022-10-01T01:21:47;98423.91;;;21.27
64624;BMP280;51031;50.912;9.242;2022-10-01T01:22:10;98428.41;;;21.26
64624;BMP280;51031;50.912;9.242;2022-10-01T01:22:29;98433.91;;;21.25
64624;BMP280;51031;50.912;9.242;2022-10-01T01:22:53;98423.41;;;21.23
64624;BMP280;51031;50.912;9.242;2022-10-01T01:23:28;98431.56;;;21.22
64624;BMP280;51031;50.912;9.242;2022-10-01T01:24:02;98426.25;;;21.22
64624;BMP280;51031;50.912;9.242;2022-10-01T01:24:37;98422.75;;;21.21
64624;BMP280;51031;50.912;9.242;2022-10-01T01:24:57;98425.22;;;21.23
64624;BMP280;51031;50.912;9.242;2022-10-01T01:25:16;98425.22;;;21.23
64624;BMP280;51031;50.912;9.242;2022-10-01T01:25:35;98430.56;;;21.23
64624;BMP280;51031;50.912;9.242;2022-10-01T01:26:01;98427.91;;;21.23
64624;BMP280;51031;50.912;9.242;2022-10-01T01:26:28;98419.25;;;21.21
64624;BMP280;51031;50.912;9.242;2022-10-01T01:26:55;98429.72;;;21.22
64624;BMP280;51031;50.912;9.242;2022-10-01T01:27:27;98426.25;;;21.22
64624;BMP280;51031;50.912;9.242;2022-10-01T01:27:46;98417.22;;;21.15
64624;BMP280;51031;50.912;9.242;2022-10-01T01:28:12;98429.03;;;21.12
64624;BMP280;51031;50.912;9.242;2022-10-01T01:28:31;98420.84;;;21.06
64624;BMP280;51031;50.912;9.242;2022-10-01T01:28:50;98425.84;;;21.01
64624;BMP280;51031;50.912;9.242;2022-10-01T01:29:12;98423.13;;;20.93
64624;BMP280;51031;50.912;9.242;2022-10-01T01:29:33;98420.13;;;20.88
64624;BMP280;51031;50.912;9.242;2022-10-01T01:29:52;98419.09;;;20.82
64624;BMP280;51031;50.912;9.242;2022-10-01T01:30:13;98417.06;;;20.76
64624;BMP280;51031;50.912;9.242;2022-10-01T01:30:32;98420.91;;;20.73
64624;BMP280;51031;50.912;9.242;2022-10-01T01:30:51;98411.41;;;20.71
64624;BMP280;51031;50.912;9.242;2022-10-01T01:31:14;98422.03;;;20.71
64624;BMP280;51031;50.912;9.242;2022-10-01T01:31:34;98419.53;;;20.69
64624;BMP280;51031;50.912;9.242;2022-10-01T01:31:54;98422.34;;;20.68
64624;BMP280;51031;50.912;9.242;2022-10-01T01:32:16;98419.00;;;20.66
64624;BMP280;51031;50.912;9.242;2022-10-01T01:32:40;98416.81;;;20.61
64624;BMP280;51031;50.912;9.242;2022-10-01T01:33:04;98412.13;;;20.56
64624;BMP280;51031;50.912;9.242;2022-10-01T01:33:23;98416.06;;;20.52
64624;BMP280;51031;50.912;9.242;2022-10-01T01:33:42;98415.56;;;20.48
64624;BMP280;51031;50.912;9.242;2022-10-01T01:33:59;98408.88;;;20.44
64624;BMP280;51031;50.912;9.242;2022-10-01T01:34:22;98408.38;;;20.41
64624;BMP280;51031;50.912;9.242;2022-10-01T01:34:41;98413.16;;;20.37
64624;BMP280;51031;50.912;9.242;2022-10-01T01:35:01;98411.13;;;20.31
64624;BMP280;51031;50.912;9.242;2022-10-01T01:35:21;98412.44;;;20.27
64624;BMP280;51031;50.912;9.242;2022-10-01T01:35:40;98409.44;;;20.23
64624;BMP280;51031;50.912;9.242;2022-10-01T01:36:02;98413.41;;;20.19
64624;BMP280;51031;50.912;9.242;2022-10-01T01:36:22;98416.66;;;20.13
64624;BMP280;51031;50.912;9.242;2022-10-01T01:36:44;98416.59;;;20.05
64624;BMP280;51031;50.912;9.242;2022-10-01T01:37:05;98415.25;;;20.01
64624;BMP280;51031;50.912;9.242;2022-10-01T01:37:29;98418.91;;;20.00
64624;BMP280;51031;50.912;9.242;2022-10-01T01:37:52;98411.22;;;19.97
64624;BMP280;51031;50.912;9.242;2022-10-01T01:38:13;98410.41;;;19.97
64624;BMP280;51031;50.912;9.242;2022-10-01T01:38:33;98407.22;;;19.93
64624;BMP280;51031;50.912;9.242;2022-10-01T01:38:55;98418.16;;;19.90
64624;BMP280;51031;50.912;9.242;2022-10-01T01:39:16;98413.81;;;19.89
64624;BMP280;51031;50.912;9.242;2022-10-01T01:39:33;98404.50;;;19.85
64624;BMP280;51031;50.912;9.242;2022-10-01T01:39:52;98411.94;;;19.82
64624;BMP280;51031;50.912;9.242;2022-10-01T01:40:12;98409.41;;;19.80
64624;BMP280;51031;50.912;9.242;2022-10-01T01:40:30;98409.72;;;19.77
64624;BMP280;51031;50.912;9.242;2022-10-01T01:40:51;98416.03;;;19.76
64624;BMP280;51031;50.912;9.242;2022-10-01T01:41:11;98417.88;;;19.76
64624;BMP280;51031;50.912;9.242;2022-10-01T01:41:29;98415.38;;;19.74
64624;BMP280;51031;50.912;9.242;2022-10-01T01:41:53;98414.69;;;19.73
64624;BMP280;51031;50.912;9.242;2022-10-01T01:42:22;98421.00;;;19.72
64624;BMP280;51031;50.912;9.242;2022-10-01T01:42:41;98410.47;;;19.70
64624;BMP280;51031;50.912;9.242;2022-10-01T01:43:01;98414.94;;;19.70
64624;BMP280;51031;50.912;9.242;2022-10-01T01:43:24;98409.63;;;19.70
64624;BMP280;51031;50.912;9.242;2022-10-01T01:43:44;98421.94;;;19.71
64624;BMP280;51031;50.912;9.242;2022-10-01T01:44:04;98407.97;;;19.69
64624;BMP280;51031;50.912;9.242;2022-10-01T01:44:26;98413.59;;;19.66
64624;BMP280;51031;50.912;9.242;2022-10-01T01:44:46;98411.25;;;19.63
64624;BMP280;51031;50.912;9.242;2022-10-01T01:45:05;98398.56;;;19.57
64624;BMP280;51031;50.912;9.242;2022-10-01T01:45:26;98403.19;;;19.55
64624;BMP280;51031;50.912;9.242;2022-10-01T01:45:44;98405.16;;;19.53
64624;BMP280;51031;50.912;9.242;2022-10-01T01:46:04;98401.69;;;19.52
64624;BMP280;51031;50.912;9.242;2022-10-01T01:46:20;98402.81;;;19.50
64624;BMP280;51031;50.912;9.242;2022-10-01T01:46:40;98404.63;;;19.49
64624;BMP280;51031;50.912;9.242;2022-10-01T01:47:02;98407.16;;;19.51
64624;BMP280;51031;50.912;9.242;2022-10-01T01:47:20;98408.41;;;19.47
64624;BMP280;51031;50.912;9.242;2022-10-01T01:47:38;98412.06;;;19.46
64624;BMP280;51031;50.912;9.242;2022-10-01T01:47:57;98407.06;;;19.43
64624;BMP280;51031;50.912;9.242;2022-10-01T01:48:16;98407.88;;;19.43
64624;BMP280;51031;50.912;9.242;2022-10-01T01:48:32;98400.09;;;19.42
64624;BMP280;51031;50.912;9.242;2022-10-01T01:48:51;98403.75;;;19.41